logo
Search for airport 
image banner adimage banner adimage banner ad
image banner ad

EDBO - Oehna

Located in Zellendorf, Germany

ICAO - EDBO, IATA -

Data provided by Airmate  

General information

Coordinates: N51°53'56" E13°3'21"
Elevation is 287 feet MSL.
 
View others Airports in Brandenburg

Operational data

Special qualification required
Current time UTC:
Current local time:
Weather at : ETSH - Holzdorf ( 16 km )
METAR: ETSH 241120Z 31008KT 5000 -SHRA SCT020TCU BKN035 BKN060 18/14 Q1017 WHT BLU TEMPO GRN
View NOTAMs / SUP AIP / TFR affecting this airport [VIEW]
Communications frequencies: [VIEW]

Runways:

RWY identifierQFULength (ft)Width (ft)SurfaceLDA (ft)
0884°278966ASPH2789
26264°278966ASPH2789
08G84°196998GRASS1969
26G264°196998GRASS1969

Airport contact information

Address: Zellendorf Germany

Satellite view of EDBO